createdAt,value
2022-08-16T04:01:23.095Z,36.58
2022-08-16T04:03:52.862Z,34.92
2022-08-16T04:06:22.362Z,36.55
2022-08-16T04:08:50.416Z,35.28
2022-08-16T04:11:18.313Z,38.67
2022-08-16T04:14:01.748Z,39.70
2022-08-16T04:16:38.545Z,38.38
2022-08-16T04:19:31.693Z,42.45
2022-08-16T04:22:00.899Z,40.38
2022-08-16T04:24:32.737Z,42.10
2022-08-16T04:26:59.941Z,42.10
2022-08-16T04:29:27.909Z,36.10
2022-08-16T04:32:14.485Z,41.67
2022-08-16T04:34:43.827Z,45.83
2022-08-16T04:37:11.769Z,43.70
2022-08-16T04:39:47.093Z,46.45
2022-08-16T04:42:25.896Z,41.45
2022-08-16T04:44:56.003Z,46.00
2022-08-16T04:47:31.469Z,39.33
2022-08-16T04:50:00.761Z,43.55
2022-08-16T04:52:35.205Z,39.75
2022-08-16T04:55:13.688Z,36.60
2022-08-16T04:57:44.484Z,39.38
2022-08-16T05:00:31.679Z,42.15
2022-08-16T05:03:08.378Z,39.63
2022-08-16T05:05:44.909Z,36.55
2022-08-16T05:08:29.617Z,39.97
2022-08-16T05:11:11.188Z,37.63
2022-08-16T05:16:24.959Z,38.40
2022-08-16T05:19:00.643Z,37.10
2022-08-16T05:21:35.683Z,36.78
2022-08-16T05:24:07.384Z,31.92
2022-08-16T05:26:43.376Z,36.13
2022-08-16T05:29:18.769Z,34.88
2022-08-16T05:32:01.478Z,32.22
2022-08-16T05:34:29.596Z,33.25
2022-08-16T05:36:58.632Z,31.05
2022-08-16T05:39:33.565Z,33.47
2022-08-16T05:42:07.928Z,29.38
2022-08-16T05:44:37.216Z,33.67
2022-08-16T05:47:04.448Z,31.80
2022-08-16T05:49:38.789Z,33.10
2022-08-16T05:52:11.503Z,36.25
2022-08-16T05:54:47.063Z,34.42
2022-08-16T05:57:18.108Z,29.60
2022-08-16T05:59:50.607Z,32.70
2022-08-16T06:02:33.343Z,31.00
2022-08-16T06:05:03.150Z,31.25
2022-08-16T06:07:32.354Z,33.90
2022-08-16T06:10:31.895Z,33.53
2022-08-16T06:12:59.473Z,35.85
2022-08-16T06:15:27.681Z,34.58
2022-08-16T06:17:59.281Z,34.10
2022-08-16T06:20:35.274Z,32.58
2022-08-16T06:23:11.712Z,35.10
2022-08-16T06:25:54.988Z,32.53
2022-08-16T06:28:35.559Z,35.28
2022-08-16T06:31:12.308Z,33.88
2022-08-16T06:33:44.718Z,35.45
2022-08-16T06:36:15.260Z,31.30
2022-08-16T06:38:55.365Z,32.17
2022-08-16T06:41:43.946Z,36.55
2022-08-16T06:44:24.466Z,38.53
2022-08-16T06:46:58.038Z,29.98
2022-08-16T06:49:30.294Z,35.03
2022-08-16T06:52:02.943Z,30.80
2022-08-16T06:54:36.246Z,33.17
2022-08-16T06:57:05.452Z,40.58
2022-08-16T06:59:48.474Z,35.03
2022-08-16T07:02:33.362Z,32.03
2022-08-16T07:05:03.024Z,28.25
2022-08-16T07:07:51.010Z,30.80
2022-08-16T07:10:20.022Z,32.78
2022-08-16T07:13:04.231Z,31.58
2022-08-16T07:15:37.002Z,18.27
2022-08-16T07:18:24.578Z,25.17
2022-08-16T07:20:53.817Z,32.97
2022-08-16T07:23:38.716Z,37.08
2022-08-16T07:26:24.949Z,39.45
2022-08-16T07:28:53.531Z,23.17
2022-08-16T07:31:21.161Z,34.58
2022-08-16T07:33:53.441Z,38.28
2022-08-16T07:36:27.267Z,27.67
2022-08-16T07:38:56.894Z,29.55
2022-08-16T07:41:27.114Z,35.65
2022-08-16T07:43:59.823Z,41.75
2022-08-16T07:46:37.432Z,31.83
2022-08-16T07:49:19.237Z,27.85
2022-08-16T07:51:47.234Z,35.45
2022-08-16T07:54:20.943Z,37.60
2022-08-16T07:56:51.708Z,36.75
2022-08-16T07:59:20.452Z,37.30
2022-08-16T08:01:48.503Z,34.60
2022-08-16T08:04:20.810Z,30.15
2022-08-16T08:06:50.929Z,26.55
2022-08-16T08:09:18.857Z,26.27
2022-08-16T08:12:00.791Z,21.65
2022-08-16T08:14:33.253Z,27.30
2022-08-16T08:17:01.844Z,34.95
2022-08-16T08:19:31.192Z,34.28
2022-08-16T08:22:02.083Z,21.58
2022-08-16T08:24:39.873Z,35.78
2022-08-16T08:27:11.352Z,32.95
2022-08-16T08:29:40.165Z,29.55
2022-08-16T08:33:01.986Z,36.78
2022-08-16T08:35:03.735Z,30.70
2022-08-16T08:37:55.333Z,39.75
2022-08-16T08:40:27.051Z,33.85
2022-08-16T08:43:00.897Z,33.00
2022-08-16T08:45:47.015Z,25.90
2022-08-16T08:48:33.389Z,37.20
2022-08-16T08:51:08.918Z,37.72
2022-08-16T08:53:42.277Z,38.33
2022-08-16T08:56:22.591Z,31.95
2022-08-16T08:59:00.057Z,38.38
2022-08-16T09:01:43.110Z,23.75
2022-08-16T09:04:27.376Z,34.30
2022-08-16T09:06:56.264Z,35.33
2022-08-16T09:09:33.730Z,15.70
2022-08-16T09:12:05.952Z,34.47
2022-08-16T09:15:04.262Z,37.90
2022-08-16T09:17:48.789Z,34.05
2022-08-16T09:20:17.152Z,34.88
2022-08-16T09:22:52.345Z,30.10
2022-08-16T09:25:33.845Z,23.73
2022-08-16T09:28:09.254Z,36.78
2022-08-16T09:30:43.846Z,37.97
2022-08-16T09:33:12.747Z,37.78
2022-08-16T09:35:42.819Z,22.63
2022-08-16T09:38:12.327Z,30.42
2022-08-16T09:40:44.125Z,24.98
2022-08-16T09:43:46.511Z,35.22
2022-08-16T09:46:02.671Z,35.38
2022-08-16T09:48:44.057Z,34.38
2022-08-16T09:51:14.009Z,30.45
2022-08-16T09:53:41.842Z,21.40
2022-08-16T09:56:31.943Z,19.52
2022-08-16T09:59:05.544Z,28.88
2022-08-16T10:01:36.622Z,34.22
2022-08-16T10:04:09.828Z,30.25
2022-08-16T10:06:54.550Z,34.28
2022-08-16T10:09:25.473Z,33.08
2022-08-16T10:12:33.457Z,26.73
2022-08-16T10:15:00.409Z,34.53
2022-08-16T10:17:27.955Z,33.75
2022-08-16T10:19:55.396Z,24.02
2022-08-16T10:22:23.354Z,18.50
2022-08-16T10:24:55.648Z,33.50
2022-08-16T10:27:45.782Z,21.25
2022-08-16T10:30:26.259Z,30.77
2022-08-16T10:35:23.739Z,19.13
2022-08-16T10:37:52.154Z,28.70
2022-08-16T10:43:00.093Z,30.42
2022-08-16T10:45:29.319Z,22.77
2022-08-16T10:48:27.180Z,32.40
2022-08-16T10:50:58.694Z,30.30
2022-08-16T10:53:32.997Z,34.80
2022-08-16T10:56:52.878Z,25.95
2022-08-16T10:59:29.353Z,31.50
2022-08-16T11:02:21.831Z,29.58
2022-08-16T11:11:06.462Z,23.38
2022-08-16T11:12:53.648Z,30.58
2022-08-16T11:15:21.791Z,27.50
2022-08-16T11:20:55.937Z,30.20
2022-08-16T11:23:23.357Z,31.88
2022-08-16T11:26:22.872Z,30.80
2022-08-16T11:31:25.273Z,34.55
2022-08-16T11:33:53.569Z,33.72
2022-08-16T11:39:00.160Z,24.42
2022-08-16T11:41:29.496Z,23.02
2022-08-16T11:43:59.566Z,20.80
2022-08-16T11:46:43.236Z,33.45
2022-08-16T11:49:14.219Z,31.65
2022-08-16T11:51:44.105Z,25.73
2022-08-16T11:54:20.434Z,29.00
2022-08-16T11:56:52.394Z,27.17
2022-08-16T11:59:24.258Z,28.95
2022-08-16T12:04:27.783Z,30.08
2022-08-16T12:06:54.988Z,31.55
2022-08-16T12:09:24.794Z,30.98
2022-08-16T12:11:58.556Z,25.88
2022-08-16T12:14:35.241Z,22.38
2022-08-16T12:17:04.750Z,34.35
2022-08-16T12:19:35.412Z,32.42
2022-08-16T12:22:05.863Z,20.33
2022-08-16T12:24:50.983Z,27.95
2022-08-16T12:27:23.210Z,31.15
2022-08-16T12:29:52.044Z,27.33
2022-08-16T12:32:36.171Z,21.02
2022-08-16T12:35:08.545Z,22.23
2022-08-16T12:37:35.644Z,21.50
2022-08-16T12:40:02.739Z,26.60
2022-08-16T12:42:35.752Z,27.38
2022-08-16T12:45:08.982Z,25.85
2022-08-16T12:48:05.089Z,21.33
2022-08-16T12:50:41.337Z,26.90
2022-08-16T12:53:09.635Z,24.00
2022-08-16T12:55:41.769Z,25.25
2022-08-16T12:58:14.072Z,21.90
2022-08-16T13:00:57.381Z,23.48
2022-08-16T13:05:55.836Z,25.15
2022-08-16T13:08:27.500Z,21.27
2022-08-16T13:10:58.257Z,23.90
2022-08-16T13:13:26.809Z,18.33
2022-08-16T13:16:02.185Z,16.88
2022-08-16T13:18:34.635Z,19.65
2022-08-16T13:21:04.907Z,19.08
2022-08-16T13:23:32.484Z,25.85
2022-08-16T13:25:59.694Z,21.42
2022-08-16T13:28:26.631Z,26.60
2022-08-16T13:30:56.480Z,23.67
2022-08-16T13:33:30.673Z,20.55
2022-08-16T13:36:00.253Z,16.30
2022-08-16T13:38:36.787Z,23.83
2022-08-16T13:41:08.736Z,27.98
2022-08-16T13:43:37.150Z,28.08
2022-08-16T13:46:04.812Z,20.02
2022-08-16T13:48:43.250Z,25.73
2022-08-16T13:51:15.817Z,20.85
2022-08-16T13:53:54.173Z,21.40
2022-08-16T13:56:25.276Z,18.33
2022-08-16T13:58:55.024Z,22.70
2022-08-16T14:01:22.795Z,21.30
2022-08-16T14:03:50.448Z,15.85
2022-08-16T14:06:21.940Z,20.42
2022-08-16T14:08:58.857Z,14.48
2022-08-16T14:11:34.484Z,15.80
2022-08-16T14:14:01.796Z,13.68
2022-08-16T14:16:34.169Z,17.70
2022-08-16T14:19:02.524Z,13.63
2022-08-16T14:21:35.294Z,15.05
2022-08-16T14:24:08.120Z,17.88
2022-08-16T14:26:50.151Z,14.45
2022-08-16T14:31:53.683Z,19.00
2022-08-16T14:34:21.984Z,18.05
2022-08-16T14:36:53.184Z,18.77
2022-08-16T14:39:22.104Z,20.13
2022-08-16T14:44:20.852Z,18.25
2022-08-16T14:46:47.687Z,16.67
2022-08-16T14:49:14.538Z,17.80
2022-08-16T14:51:46.117Z,14.65
2022-08-16T14:54:15.106Z,22.70
2022-08-16T14:56:46.879Z,14.95
2022-08-16T14:59:22.386Z,17.30
2022-08-16T15:01:59.857Z,17.85
2022-08-16T15:04:32.330Z,14.23
2022-08-16T15:07:11.155Z,11.38
2022-08-16T15:10:00.479Z,14.93
2022-08-16T15:12:34.087Z,17.90
2022-08-16T15:15:12.985Z,15.38
2022-08-16T15:17:56.820Z,16.95
2022-08-16T15:20:29.558Z,12.80
2022-08-16T15:22:58.967Z,17.15
2022-08-16T15:25:34.326Z,16.40
2022-08-16T15:28:04.654Z,17.73
2022-08-16T15:30:59.831Z,20.00
2022-08-16T15:33:25.568Z,17.70
2022-08-16T15:35:57.910Z,16.10
2022-08-16T15:38:57.154Z,17.92
2022-08-16T15:41:28.731Z,9.90
2022-08-16T15:44:05.011Z,14.75
2022-08-16T15:46:35.543Z,14.20
2022-08-16T15:49:20.481Z,15.73
2022-08-16T15:51:47.977Z,14.65
2022-08-16T15:54:21.007Z,15.70
2022-08-16T15:57:04.333Z,14.90
2022-08-16T15:59:48.703Z,15.52
2022-08-16T16:02:27.248Z,14.45
2022-08-16T16:04:55.083Z,12.85
2022-08-16T16:07:22.360Z,17.05
2022-08-16T16:09:49.775Z,14.45
2022-08-16T16:12:51.607Z,15.82
2022-08-16T16:15:07.697Z,16.88
2022-08-16T16:17:35.172Z,14.85
2022-08-16T16:20:05.639Z,15.90
2022-08-16T16:22:41.702Z,14.60
2022-08-16T16:25:09.127Z,13.65
2022-08-16T16:27:36.718Z,14.70
2022-08-16T16:30:11.405Z,18.08
2022-08-16T16:32:51.864Z,16.17
2022-08-16T16:35:18.832Z,18.00
2022-08-16T16:37:56.567Z,13.10
2022-08-16T16:40:32.573Z,10.52
2022-08-16T16:43:01.281Z,14.15
2022-08-16T16:45:34.736Z,13.93
2022-08-16T16:48:12.111Z,15.25
2022-08-16T16:50:44.683Z,14.13
2022-08-16T16:53:17.036Z,14.40
2022-08-16T16:55:52.040Z,19.85
2022-08-16T16:58:43.349Z,25.17
2022-08-16T17:01:10.751Z,21.65
2022-08-16T17:03:38.542Z,30.80
2022-08-16T17:06:08.908Z,28.35
2022-08-16T17:08:41.366Z,24.65
2022-08-16T17:11:10.018Z,28.60
2022-08-16T17:13:37.360Z,27.48
2022-08-16T17:16:05.539Z,29.05
2022-08-16T17:19:14.427Z,32.42
2022-08-16T17:21:20.917Z,31.27
2022-08-16T17:23:59.448Z,29.63
2022-08-16T17:26:29.749Z,35.53
2022-08-16T17:29:10.625Z,31.63
2022-08-16T17:31:40.957Z,33.80
2022-08-16T17:34:29.451Z,34.75
2022-08-16T17:37:05.465Z,36.60
2022-08-16T17:39:35.705Z,34.55
2022-08-16T17:42:25.204Z,37.03
2022-08-16T17:44:52.888Z,27.02
2022-08-16T17:47:21.914Z,36.47
2022-08-16T17:49:48.860Z,33.65
2022-08-16T17:52:16.213Z,32.88
2022-08-16T17:54:44.086Z,42.10
2022-08-16T17:57:12.429Z,33.85
2022-08-16T17:59:40.867Z,34.72
2022-08-16T18:02:42.689Z,36.22
2022-08-16T18:04:55.779Z,34.72
2022-08-16T18:07:23.138Z,33.08
2022-08-16T18:09:52.433Z,35.20
2022-08-16T18:12:45.286Z,33.50
2022-08-16T18:15:14.130Z,35.00
2022-08-16T18:17:42.185Z,34.72
2022-08-16T18:20:33.361Z,32.60
2022-08-16T18:23:12.331Z,38.75
2022-08-16T18:25:44.600Z,32.47
2022-08-16T18:28:12.647Z,34.20
2022-08-16T18:30:39.902Z,35.75
2022-08-16T18:33:07.008Z,34.85
2022-08-16T18:35:34.274Z,37.25
2022-08-16T18:38:01.395Z,34.92
2022-08-16T18:40:28.828Z,34.10
2022-08-16T18:43:03.633Z,35.47
2022-08-16T18:45:35.568Z,34.65
2022-08-16T18:48:06.076Z,34.90
2022-08-16T18:53:22.449Z,37.47
2022-08-16T18:55:52.600Z,32.92
2022-08-16T18:58:19.581Z,38.30
2022-08-16T19:00:56.422Z,38.20
2022-08-16T19:03:30.196Z,31.75
2022-08-16T19:06:13.879Z,31.85
2022-08-16T19:08:43.507Z,30.85
2022-08-16T19:11:14.710Z,30.55
2022-08-16T19:13:45.370Z,36.15
2022-08-16T19:16:13.311Z,33.72
2022-08-16T19:18:40.543Z,29.27
2022-08-16T19:21:08.818Z,31.70
2022-08-16T19:23:37.091Z,34.75
2022-08-16T19:26:24.924Z,32.80
2022-08-16T19:28:58.363Z,30.38
2022-08-16T19:31:33.286Z,33.25
2022-08-16T19:34:01.297Z,31.30
2022-08-16T19:36:36.533Z,31.10
2022-08-16T19:39:08.998Z,28.35
2022-08-16T19:41:38.612Z,31.83
2022-08-16T19:44:06.767Z,28.65
2022-08-16T19:46:34.935Z,29.20
2022-08-16T19:49:02.030Z,28.23
2022-08-16T19:51:29.488Z,27.13
2022-08-16T19:53:56.496Z,29.08
2022-08-16T19:56:26.016Z,29.05
2022-08-16T19:59:18.058Z,30.23
2022-08-16T20:01:42.589Z,29.48
2022-08-16T20:04:14.637Z,29.38
2022-08-16T20:06:42.805Z,25.38
2022-08-16T20:09:10.419Z,26.42
2022-08-16T20:11:41.709Z,27.75
2022-08-16T20:14:08.629Z,32.83
2022-08-16T20:16:36.023Z,28.40
2022-08-16T20:19:04.325Z,28.67
2022-08-16T20:21:32.105Z,28.40
2022-08-16T20:24:22.614Z,29.50
2022-08-16T20:26:46.192Z,27.58
2022-08-16T20:29:13.324Z,29.92
2022-08-16T20:31:46.452Z,33.35
2022-08-16T20:34:16.004Z,29.88
2022-08-16T20:36:48.538Z,30.33
2022-08-16T20:39:15.664Z,28.55
2022-08-16T20:41:45.979Z,31.38
2022-08-16T20:44:25.083Z,29.23
2022-08-16T20:46:52.880Z,35.55
2022-08-16T20:49:19.786Z,40.58
2022-08-16T20:51:50.439Z,35.88
2022-08-16T20:54:19.794Z,37.38
2022-08-16T20:56:46.795Z,42.35
2022-08-16T20:59:13.900Z,43.15
2022-08-16T21:01:47.122Z,36.10
2022-08-16T21:04:22.071Z,42.42
2022-08-16T21:06:53.696Z,33.42
2022-08-16T21:09:23.780Z,36.40
2022-08-16T21:11:53.115Z,34.42
2022-08-16T21:14:20.234Z,33.75
2022-08-16T21:16:47.119Z,33.92
2022-08-16T21:19:14.720Z,29.80
2022-08-16T21:21:41.602Z,37.50
2022-08-16T21:24:08.543Z,38.53
2022-08-16T21:26:39.033Z,42.20
2022-08-16T21:29:07.706Z,42.35
2022-08-16T21:31:40.615Z,36.28
2022-08-16T21:36:36.502Z,41.15
2022-08-16T21:39:07.062Z,43.08
2022-08-16T21:41:35.310Z,39.20
2022-08-16T21:44:02.302Z,46.33
2022-08-16T21:46:29.172Z,48.08
2022-08-16T21:48:56.208Z,46.72
2022-08-16T21:51:23.045Z,45.05
2022-08-16T21:53:49.975Z,48.05
2022-08-16T21:56:17.593Z,51.38
2022-08-16T21:58:52.421Z,50.58
2022-08-16T22:01:23.226Z,48.78
2022-08-16T22:04:01.589Z,43.03
2022-08-16T22:06:48.191Z,48.83
2022-08-16T22:09:17.755Z,46.78
2022-08-16T22:11:44.797Z,46.35
2022-08-16T22:14:11.831Z,49.83
2022-08-16T22:16:41.756Z,48.55
2022-08-16T22:19:09.259Z,49.20
2022-08-16T22:21:36.353Z,45.72
2022-08-16T22:24:03.656Z,51.15
2022-08-16T22:26:32.676Z,51.60
2022-08-16T22:29:09.802Z,51.90
2022-08-16T22:31:38.369Z,58.35
2022-08-16T22:34:05.599Z,59.97
2022-08-16T22:36:33.718Z,57.00
2022-08-16T22:39:03.630Z,54.20
2022-08-16T22:41:32.160Z,54.17
2022-08-16T22:44:01.150Z,55.50
2022-08-16T22:46:28.530Z,56.83
2022-08-16T22:48:55.524Z,56.55
2022-08-16T22:51:24.527Z,53.42
2022-08-16T22:53:51.903Z,53.60
2022-08-16T22:56:20.228Z,53.75
2022-08-16T22:58:47.523Z,51.40
2022-08-16T23:01:16.412Z,54.67
2022-08-16T23:03:44.038Z,53.67
2022-08-16T23:06:12.550Z,49.28
2022-08-16T23:08:41.485Z,51.03
2022-08-16T23:11:24.014Z,52.10
2022-08-16T23:13:56.277Z,50.50
2022-08-16T23:16:33.781Z,45.30
2022-08-16T23:19:09.684Z,50.90
2022-08-16T23:21:38.268Z,53.45
2022-08-16T23:24:06.653Z,49.28
2022-08-16T23:26:46.134Z,43.53
2022-08-16T23:29:23.380Z,42.30
2022-08-16T23:32:08.301Z,47.60
2022-08-16T23:34:35.484Z,54.50
2022-08-16T23:37:02.311Z,44.55
2022-08-16T23:39:29.498Z,46.45
2022-08-16T23:41:56.430Z,46.92
2022-08-16T23:44:44.148Z,46.28
2022-08-16T23:47:11.044Z,45.72
2022-08-16T23:50:01.989Z,45.28
2022-08-16T23:52:40.660Z,49.10
2022-08-16T23:55:13.601Z,44.45
2022-08-16T23:57:43.720Z,43.13
